createdAt,value
2019-03-23T00:01:52.878Z,96190.94
2019-03-23T00:04:25.365Z,96185.66
2019-03-23T00:06:55.652Z,96183.41
2019-03-23T00:09:26.096Z,96180.22
2019-03-23T00:11:56.669Z,96181.95
2019-03-23T00:14:27.111Z,96183.09
2019-03-23T00:16:57.547Z,96180.53
2019-03-23T00:19:28.082Z,96172.53
2019-03-23T00:21:58.568Z,96172.05
2019-03-23T00:24:29.019Z,96175.73
2019-03-23T00:26:59.506Z,96177.48
2019-03-23T00:29:29.946Z,96180.20
2019-03-23T00:32:00.392Z,96177.19
2019-03-23T00:34:31.387Z,96167.90
2019-03-23T00:37:01.926Z,96166.92
2019-03-23T00:39:33.410Z,96170.95
2019-03-23T00:42:03.873Z,96171.09
2019-03-23T00:44:34.321Z,96167.58
2019-03-23T00:47:04.873Z,96171.41
2019-03-23T00:49:35.336Z,96172.22
2019-03-23T00:52:05.864Z,96170.77
2019-03-23T00:54:36.237Z,96164.88
2019-03-23T00:57:06.793Z,96165.52
2019-03-23T00:59:37.450Z,96165.83
2019-03-23T01:02:07.970Z,96161.36
2019-03-23T01:04:39.490Z,96160.72
2019-03-23T01:07:10.017Z,96161.67
2019-03-23T01:09:40.546Z,96154.16
2019-03-23T01:12:11.013Z,96154.94
2019-03-23T01:14:41.580Z,96150.46
2019-03-23T01:17:12.095Z,96152.23
2019-03-23T01:19:42.586Z,96145.03
2019-03-23T01:22:13.056Z,96140.55
2019-03-23T01:24:43.593Z,96137.35
2019-03-23T01:27:14.050Z,96138.31
2019-03-23T01:29:44.503Z,96134.62
2019-03-23T01:32:15.096Z,96138.64
2019-03-23T01:34:45.990Z,96131.28
2019-03-23T01:37:16.504Z,96133.38
2019-03-23T01:39:46.986Z,96126.98
2019-03-23T01:42:17.523Z,96130.48
2019-03-23T01:44:47.986Z,96126.64
2019-03-23T01:47:18.651Z,96128.09
2019-03-23T01:49:49.206Z,96128.87
2019-03-23T01:52:19.824Z,96134.64
2019-03-23T01:54:50.360Z,96138.00
2019-03-23T01:57:20.830Z,96134.14
2019-03-23T01:59:52.000Z,96133.69
2019-03-23T02:02:22.484Z,96136.40
2019-03-23T02:04:54.006Z,96129.22
2019-03-23T02:07:24.482Z,96137.85
2019-03-23T02:09:54.911Z,96137.05
2019-03-23T02:12:25.362Z,96139.44
2019-03-23T02:14:56.805Z,96142.80
2019-03-23T02:17:27.335Z,96145.52
2019-03-23T02:19:57.776Z,96144.05
2019-03-23T02:22:28.219Z,96148.53
2019-03-23T02:24:58.677Z,96144.86
2019-03-23T02:27:29.145Z,96136.98
2019-03-23T02:29:59.627Z,96140.53
2019-03-23T02:32:30.329Z,96142.77
2019-03-23T02:35:01.146Z,96136.22
2019-03-23T02:37:31.520Z,96138.14
2019-03-23T02:40:02.000Z,96137.04
2019-03-23T02:42:32.541Z,96130.16
2019-03-23T02:45:03.163Z,96126.33
2019-03-23T02:47:33.599Z,96129.81
2019-03-23T02:50:04.462Z,96127.44
2019-03-23T02:52:34.983Z,96134.17
2019-03-23T02:55:06.635Z,96125.22
2019-03-23T02:57:37.233Z,96131.28
2019-03-23T03:00:08.622Z,96124.58
2019-03-23T03:02:39.315Z,96126.66
2019-03-23T03:05:10.702Z,96127.94
2019-03-23T03:07:43.257Z,96126.81
2019-03-23T03:10:16.373Z,96125.05
2019-03-23T03:12:46.927Z,96125.05
2019-03-23T03:15:17.561Z,96119.59
2019-03-23T03:17:48.058Z,96119.89
2019-03-23T03:20:18.441Z,96122.42
2019-03-23T03:22:49.096Z,96122.08
2019-03-23T03:25:19.566Z,96121.09
2019-03-23T03:27:50.117Z,96114.54
2019-03-23T03:30:20.639Z,96111.70
2019-03-23T03:32:51.251Z,96116.66
2019-03-23T03:35:21.912Z,96120.03
2019-03-23T03:37:56.780Z,96111.69
2019-03-23T03:40:24.757Z,96120.83
2019-03-23T03:42:55.284Z,96125.76
2019-03-23T03:45:26.716Z,96121.30
2019-03-23T03:47:57.493Z,96126.57
2019-03-23T03:50:27.880Z,96128.64
2019-03-23T03:52:58.341Z,96127.20
2019-03-23T03:55:28.738Z,96125.10
2019-03-23T03:57:59.103Z,96127.98
2019-03-23T04:00:29.665Z,96135.98
2019-03-23T04:03:00.103Z,96134.67
2019-03-23T04:05:30.599Z,96134.06
2019-03-23T04:08:11.119Z,96128.33
2019-03-23T04:10:34.340Z,96136.00
2019-03-23T04:13:04.934Z,96129.79
2019-03-23T04:15:35.355Z,96133.58
2019-03-23T04:18:05.878Z,96133.12
2019-03-23T04:20:36.338Z,96124.64
2019-03-23T04:23:06.857Z,96125.30
2019-03-23T04:25:37.745Z,96132.44
2019-03-23T04:28:08.213Z,96136.43
2019-03-23T04:30:38.655Z,96135.63
2019-03-23T04:33:09.181Z,96132.59
2019-03-23T04:35:39.753Z,96129.14
2019-03-23T04:38:21.982Z,96138.84
2019-03-23T04:40:42.486Z,96138.22
2019-03-23T04:43:12.906Z,96147.02
2019-03-23T04:45:43.369Z,96146.71
2019-03-23T04:48:13.986Z,96154.63
2019-03-23T04:50:44.453Z,96153.18
2019-03-23T04:53:14.988Z,96153.18
2019-03-23T04:55:45.571Z,96159.89
2019-03-23T04:58:16.049Z,96156.44
2019-03-23T05:00:46.623Z,96157.55
2019-03-23T05:03:17.071Z,96157.43
2019-03-23T05:05:47.582Z,96158.06
2019-03-23T05:08:18.238Z,96158.66
2019-03-23T05:10:48.953Z,96156.94
2019-03-23T05:13:20.372Z,96162.84
2019-03-23T05:15:50.843Z,96160.94
2019-03-23T05:18:21.290Z,96159.50
2019-03-23T05:20:51.775Z,96160.97
2019-03-23T05:23:22.277Z,96163.34
2019-03-23T05:25:52.840Z,96164.22
2019-03-23T05:28:23.349Z,96166.14
2019-03-23T05:30:53.915Z,96165.35
2019-03-23T05:33:24.392Z,96171.88
2019-03-23T05:35:54.966Z,96175.56
2019-03-23T05:38:25.534Z,96172.43
2019-03-23T05:40:55.969Z,96173.05
2019-03-23T05:43:26.430Z,96177.52
2019-03-23T05:45:56.900Z,96177.05
2019-03-23T05:48:27.484Z,96173.78
2019-03-23T05:50:58.026Z,96168.05
2019-03-23T05:53:28.518Z,96176.49
2019-03-23T05:55:58.953Z,96175.03
2019-03-23T05:58:29.458Z,96180.14
2019-03-23T06:01:00.020Z,96177.92
2019-03-23T06:03:30.541Z,96174.26
2019-03-23T06:06:01.286Z,96178.91
2019-03-23T06:08:34.176Z,96176.86
2019-03-23T06:11:04.728Z,96180.04
2019-03-23T06:13:35.343Z,96183.11
2019-03-23T06:16:05.967Z,96181.03
2019-03-23T06:18:36.503Z,96182.13
2019-03-23T06:21:07.066Z,96180.05
2019-03-23T06:23:37.503Z,96180.05
2019-03-23T06:26:08.072Z,96178.59
2019-03-23T06:28:38.580Z,96182.94
2019-03-23T06:31:09.089Z,96188.67
2019-03-23T06:33:39.587Z,96188.03
2019-03-23T06:36:10.128Z,96173.73
2019-03-23T06:38:40.560Z,96183.76
2019-03-23T06:41:11.067Z,96180.81
2019-03-23T06:43:41.627Z,96177.88
2019-03-23T06:46:12.019Z,96180.42
2019-03-23T06:48:42.543Z,96176.47
2019-03-23T06:51:13.134Z,96180.63
2019-03-23T06:53:43.670Z,96187.28
2019-03-23T06:56:14.161Z,96184.98
2019-03-23T06:58:45.652Z,96186.62
2019-03-23T07:01:16.133Z,96191.41
2019-03-23T07:03:46.522Z,96190.98
2019-03-23T07:06:17.041Z,96184.44
2019-03-23T07:08:48.026Z,96185.25
2019-03-23T07:11:18.514Z,96180.20
2019-03-23T07:13:49.045Z,96189.22
2019-03-23T07:16:19.493Z,96194.84
2019-03-23T07:18:50.041Z,96196.42
2019-03-23T07:21:20.794Z,96192.56
2019-03-23T07:23:51.359Z,96194.66
2019-03-23T07:26:21.935Z,96190.89
2019-03-23T07:28:52.479Z,96195.41
2019-03-23T07:31:22.971Z,96188.13
2019-03-23T07:33:53.415Z,96180.52
2019-03-23T07:36:23.776Z,96185.56
2019-03-23T07:38:54.370Z,96186.05
2019-03-23T07:41:24.902Z,96187.83
2019-03-23T07:43:55.395Z,96186.71
2019-03-23T07:46:25.857Z,96188.00
2019-03-23T07:48:56.339Z,96182.78
2019-03-23T07:51:26.784Z,96182.84
2019-03-23T07:53:57.345Z,96185.58
2019-03-23T07:56:27.797Z,96183.16
2019-03-23T07:58:58.361Z,96186.66
2019-03-23T08:01:28.889Z,96185.98
2019-03-23T08:03:59.355Z,96189.52
2019-03-23T08:06:29.837Z,96184.62
2019-03-23T08:09:00.547Z,96183.92
2019-03-23T08:11:32.751Z,96184.94
2019-03-23T08:14:03.326Z,96183.88
2019-03-23T08:16:33.841Z,96185.82
2019-03-23T08:19:04.375Z,96196.10
2019-03-23T08:21:34.944Z,96191.37
2019-03-23T08:24:05.466Z,96188.95
2019-03-23T08:26:36.024Z,96180.34
2019-03-23T08:29:06.567Z,96182.86
2019-03-23T08:31:37.124Z,96193.17
2019-03-23T08:34:07.689Z,96191.61
2019-03-23T08:36:38.265Z,96194.53
2019-03-23T08:39:09.325Z,96186.66
2019-03-23T08:41:39.788Z,96195.66
2019-03-23T08:44:10.418Z,96187.40
2019-03-23T08:46:40.811Z,96184.83
2019-03-23T08:49:11.303Z,96186.27
2019-03-23T08:51:41.770Z,96183.58
2019-03-23T08:54:12.385Z,96188.73
2019-03-23T08:56:42.925Z,96189.44
2019-03-23T08:59:13.486Z,96178.88
2019-03-23T09:01:43.955Z,96186.38
2019-03-23T09:04:15.572Z,96183.50
2019-03-23T09:06:46.044Z,96183.06
2019-03-23T09:09:16.695Z,96185.22
2019-03-23T09:11:47.163Z,96184.45
2019-03-23T09:14:17.658Z,96185.45
2019-03-23T09:16:48.039Z,96183.88
2019-03-23T09:19:18.639Z,96181.36
2019-03-23T09:21:49.044Z,96175.50
2019-03-23T09:24:19.878Z,96172.34
2019-03-23T09:26:50.541Z,96167.67
2019-03-23T09:29:20.976Z,96171.91
2019-03-23T09:31:51.514Z,96171.81
2019-03-23T09:34:22.018Z,96166.70
2019-03-23T09:36:52.494Z,96169.75
2019-03-23T09:39:23.021Z,96171.22
2019-03-23T09:41:53.523Z,96169.12
2019-03-23T09:44:24.077Z,96163.89
2019-03-23T09:46:54.541Z,96164.81
2019-03-23T09:49:25.024Z,96166.48
2019-03-23T09:51:55.492Z,96163.39
2019-03-23T09:54:26.067Z,96171.75
2019-03-23T09:56:56.574Z,96158.50
2019-03-23T09:59:27.034Z,96156.91
2019-03-23T10:01:57.515Z,96153.41
2019-03-23T10:04:28.124Z,96147.42
2019-03-23T10:06:58.970Z,96152.75
2019-03-23T10:09:29.554Z,96147.13
2019-03-23T10:12:00.070Z,96143.56
2019-03-23T10:14:31.751Z,96152.75
2019-03-23T10:17:02.196Z,96142.12
2019-03-23T10:19:32.716Z,96137.55
2019-03-23T10:22:06.273Z,96137.55
2019-03-23T10:24:36.824Z,96137.27
2019-03-23T10:27:07.347Z,96133.50
2019-03-23T10:29:38.023Z,96130.88
2019-03-23T10:32:08.583Z,96129.45
2019-03-23T10:34:39.226Z,96117.95
2019-03-23T10:37:09.619Z,96119.23
2019-03-23T10:39:41.151Z,96116.50
2019-03-23T10:42:11.679Z,96123.11
2019-03-23T10:44:42.222Z,96116.71
2019-03-23T10:47:12.725Z,96117.56
2019-03-23T10:49:43.164Z,96121.70
2019-03-23T10:52:13.637Z,96113.02
2019-03-23T10:54:44.169Z,96113.25
2019-03-23T10:57:14.710Z,96111.45
2019-03-23T10:59:45.096Z,96112.69
2019-03-23T11:02:15.561Z,96111.23
2019-03-23T11:04:46.121Z,96106.55
2019-03-23T11:07:16.626Z,96107.60
2019-03-23T11:09:47.152Z,96106.54
2019-03-23T11:12:17.800Z,96101.27
2019-03-23T11:14:48.322Z,96102.44
2019-03-23T11:17:18.855Z,96101.83
2019-03-23T11:19:49.334Z,96094.85
2019-03-23T11:22:19.848Z,96083.45
2019-03-23T11:24:50.313Z,96089.78
2019-03-23T11:27:20.825Z,96083.40
2019-03-23T11:29:51.272Z,96090.59
2019-03-23T11:32:22.032Z,96083.63
2019-03-23T11:34:52.695Z,96086.55
2019-03-23T11:37:23.326Z,96083.59
2019-03-23T11:39:53.904Z,96087.44
2019-03-23T11:42:24.560Z,96078.30
2019-03-23T11:44:55.149Z,96073.16
2019-03-23T11:47:25.770Z,96085.16
2019-03-23T11:49:56.313Z,96077.35
2019-03-23T11:52:26.871Z,96074.95
2019-03-23T11:54:57.389Z,96063.31
2019-03-23T11:57:27.931Z,96066.44
2019-03-23T11:59:58.463Z,96062.30
2019-03-23T12:02:28.918Z,96061.35
2019-03-23T12:04:59.521Z,96051.55
2019-03-23T12:07:30.005Z,96058.91
2019-03-23T12:10:00.603Z,96049.28
2019-03-23T12:12:31.018Z,96052.84
2019-03-23T12:15:01.560Z,96050.82
2019-03-23T12:17:32.163Z,96052.13
2019-03-23T12:20:02.801Z,96060.50
2019-03-23T12:22:34.356Z,96050.02
2019-03-23T12:25:05.685Z,96044.70
2019-03-23T12:27:36.292Z,96043.29
2019-03-23T12:30:07.868Z,96047.59
2019-03-23T12:32:38.384Z,96039.07
2019-03-23T12:35:09.188Z,96034.22
2019-03-23T12:37:39.701Z,96033.26
2019-03-23T12:40:11.062Z,96044.55
2019-03-23T12:42:41.714Z,96031.95
2019-03-23T12:45:12.782Z,96026.22
2019-03-23T12:47:43.417Z,96024.48
2019-03-23T12:50:16.620Z,96022.91
2019-03-23T12:53:08.065Z,96023.54
2019-03-23T12:55:38.572Z,96018.91
2019-03-23T12:58:09.116Z,96020.09
2019-03-23T13:00:39.789Z,96024.45
2019-03-23T13:03:10.363Z,96020.97
2019-03-23T13:05:40.794Z,96018.42
2019-03-23T13:08:11.276Z,96020.92
2019-03-23T13:10:41.887Z,96012.17
2019-03-23T13:13:12.345Z,96015.95
2019-03-23T13:15:42.862Z,96019.74
2019-03-23T13:18:13.548Z,96010.00
2019-03-23T13:20:44.007Z,96007.07
2019-03-23T13:23:14.549Z,96011.87
2019-03-23T13:25:45.065Z,96011.28
2019-03-23T13:28:15.646Z,96000.28
2019-03-23T13:30:46.043Z,96007.83
2019-03-23T13:33:16.529Z,95996.73
2019-03-23T13:35:47.075Z,95997.29
2019-03-23T13:38:17.490Z,95998.75
2019-03-23T13:40:48.026Z,95995.67
2019-03-23T13:43:18.618Z,95994.03
2019-03-23T13:45:49.189Z,95995.00
2019-03-23T13:48:19.686Z,95991.67
2019-03-23T13:50:50.134Z,95990.77
2019-03-23T13:53:21.632Z,95988.95
2019-03-23T13:55:52.072Z,95989.85
2019-03-23T13:58:22.542Z,95992.50
2019-03-23T14:00:53.070Z,95981.52
2019-03-23T14:03:23.609Z,95988.71
2019-03-23T14:05:54.233Z,95984.25
2019-03-23T14:08:24.780Z,95977.52
2019-03-23T14:10:55.808Z,95985.45
2019-03-23T14:13:27.829Z,95981.00
2019-03-23T14:15:58.375Z,95982.16
2019-03-23T14:18:28.914Z,95975.70
2019-03-23T14:20:59.431Z,95974.87
2019-03-23T14:23:30.053Z,95969.96
2019-03-23T14:26:00.537Z,95974.29
2019-03-23T14:28:31.010Z,95973.43
2019-03-23T14:31:01.488Z,95969.84
2019-03-23T14:33:31.976Z,95973.98
2019-03-23T14:36:02.654Z,95972.95
2019-03-23T14:38:33.276Z,95977.17
2019-03-23T14:41:04.966Z,95965.07
2019-03-23T14:43:35.397Z,95969.27
2019-03-23T14:46:05.981Z,95965.62
2019-03-23T14:48:36.442Z,95974.28
2019-03-23T14:51:06.982Z,95969.61
2019-03-23T14:53:37.627Z,95966.93
2019-03-23T14:56:08.231Z,95969.33
2019-03-23T14:58:38.753Z,95973.57
2019-03-23T15:01:09.909Z,95962.85
2019-03-23T15:03:40.360Z,95962.84
2019-03-23T15:06:10.857Z,95968.31
2019-03-23T15:08:41.357Z,95965.42
2019-03-23T15:11:11.949Z,95966.08
2019-03-23T15:13:42.458Z,95961.84
2019-03-23T15:16:12.861Z,95960.56
2019-03-23T15:18:43.382Z,95968.42
2019-03-23T15:21:13.994Z,95962.06
2019-03-23T15:23:44.541Z,95961.48
2019-03-23T15:26:15.077Z,95965.84
2019-03-23T15:28:45.548Z,95966.59
2019-03-23T15:31:16.014Z,95963.45
2019-03-23T15:33:46.494Z,95965.38
2019-03-23T15:36:16.953Z,95962.52
2019-03-23T15:38:47.402Z,95959.69
2019-03-23T15:41:17.924Z,95954.50
2019-03-23T15:43:49.265Z,95957.98
2019-03-23T15:46:19.880Z,95959.99
2019-03-23T15:48:50.365Z,95959.93
2019-03-23T15:51:21.021Z,95956.19
2019-03-23T15:53:51.468Z,95963.64
2019-03-23T15:56:21.921Z,95949.78
2019-03-23T15:58:52.507Z,95959.17
2019-03-23T16:01:23.346Z,95950.91
2019-03-23T16:03:53.840Z,95949.17
2019-03-23T16:06:24.224Z,95948.60
2019-03-23T16:08:54.680Z,95941.88
2019-03-23T16:11:25.745Z,95938.16
2019-03-23T16:13:56.303Z,95940.22
2019-03-23T16:16:26.740Z,95946.94
2019-03-23T16:18:57.133Z,95950.45
2019-03-23T16:21:28.062Z,95941.28
2019-03-23T16:24:00.151Z,95946.94
2019-03-23T16:26:32.691Z,95948.36
2019-03-23T16:29:03.483Z,95954.70
2019-03-23T16:31:34.004Z,95955.66
2019-03-23T16:34:04.542Z,95957.77
2019-03-23T16:36:35.016Z,95951.52
2019-03-23T16:39:07.209Z,95955.66
2019-03-23T16:41:37.834Z,95949.66
2019-03-23T16:44:08.390Z,95951.80
2019-03-23T16:46:39.041Z,95952.41
2019-03-23T16:49:09.631Z,95954.56
2019-03-23T16:51:40.131Z,95950.67
2019-03-23T16:54:10.641Z,95949.51
2019-03-23T16:56:41.259Z,95950.81
2019-03-23T16:59:11.795Z,95953.19
2019-03-23T17:01:42.552Z,95951.20
2019-03-23T17:04:13.075Z,95954.91
2019-03-23T17:06:46.549Z,95954.22
2019-03-23T17:09:18.314Z,95963.34
2019-03-23T17:12:07.663Z,95966.04
2019-03-23T17:14:38.102Z,95963.76
2019-03-23T17:17:08.632Z,95964.05
2019-03-23T17:19:39.215Z,95962.01
2019-03-23T17:22:09.891Z,95964.62
2019-03-23T17:24:40.571Z,95960.60
2019-03-23T17:27:11.582Z,95963.58
2019-03-23T17:29:42.024Z,95971.61
2019-03-23T17:32:12.641Z,95962.53
2019-03-23T17:34:43.103Z,95966.78
2019-03-23T17:37:13.626Z,95966.20
2019-03-23T17:39:44.156Z,95963.40
2019-03-23T17:42:14.599Z,95965.22
2019-03-23T17:44:46.206Z,95967.58
2019-03-23T17:47:16.917Z,95970.77
2019-03-23T17:49:47.435Z,95970.96
2019-03-23T17:52:17.895Z,95974.00
2019-03-23T17:54:48.435Z,95972.70
2019-03-23T17:57:19.228Z,95972.91
2019-03-23T17:59:49.662Z,95976.82
2019-03-23T18:02:20.275Z,95974.64
2019-03-23T18:04:51.831Z,95973.47
2019-03-23T18:07:22.376Z,95977.95
2019-03-23T18:09:52.952Z,95988.05
2019-03-23T18:12:24.099Z,95985.59
2019-03-23T18:14:55.713Z,95986.80
2019-03-23T18:17:26.296Z,95994.34
2019-03-23T18:19:56.801Z,95992.71
2019-03-23T18:22:27.296Z,95996.72
2019-03-23T18:24:57.857Z,96000.61
2019-03-23T18:27:28.388Z,96008.31
2019-03-23T18:29:59.120Z,96004.95
2019-03-23T18:32:30.497Z,96010.30
2019-03-23T18:35:03.099Z,96013.39
2019-03-23T18:37:33.141Z,96015.98
2019-03-23T18:40:05.292Z,96015.20
2019-03-23T18:42:35.959Z,96017.13
2019-03-23T18:45:07.019Z,96029.83
2019-03-23T18:47:37.526Z,96025.62
2019-03-23T18:50:08.179Z,96020.40
2019-03-23T18:52:40.031Z,96022.44
2019-03-23T18:55:10.764Z,96026.02
2019-03-23T18:57:41.247Z,96029.14
2019-03-23T19:00:14.259Z,96030.13
2019-03-23T19:02:44.850Z,96036.48
2019-03-23T19:05:15.339Z,96032.91
2019-03-23T19:07:45.959Z,96038.58
2019-03-23T19:10:16.715Z,96039.48
2019-03-23T19:12:47.194Z,96043.93
2019-03-23T19:15:17.783Z,96042.79
2019-03-23T19:17:48.244Z,96048.53
2019-03-23T19:20:18.771Z,96045.34
2019-03-23T19:22:49.284Z,96041.86
2019-03-23T19:25:19.816Z,96045.42
2019-03-23T19:27:50.305Z,96041.34
2019-03-23T19:30:21.086Z,96045.79
2019-03-23T19:32:51.654Z,96043.57
2019-03-23T19:35:22.278Z,96040.78
2019-03-23T19:37:53.681Z,96036.87
2019-03-23T19:40:26.114Z,96045.11
2019-03-23T19:42:59.583Z,96041.59
2019-03-23T19:45:30.665Z,96048.07
2019-03-23T19:48:01.308Z,96048.61
2019-03-23T19:50:32.015Z,96050.50
2019-03-23T19:53:02.544Z,96054.86
2019-03-23T19:55:33.019Z,96052.37
2019-03-23T19:58:03.449Z,96058.61
2019-03-23T20:00:34.006Z,96055.61
2019-03-23T20:03:05.834Z,96056.20
2019-03-23T20:05:36.398Z,96059.32
2019-03-23T20:08:06.983Z,96057.09
2019-03-23T20:10:37.408Z,96057.47
2019-03-23T20:13:08.300Z,96058.94
2019-03-23T20:15:38.764Z,96062.59
2019-03-23T20:18:09.261Z,96065.44
2019-03-23T20:20:39.885Z,96062.78
2019-03-23T20:23:10.595Z,96063.08
2019-03-23T20:25:41.217Z,96058.20
2019-03-23T20:28:11.822Z,96050.95
2019-03-23T20:30:42.290Z,96054.66
2019-03-23T20:33:19.258Z,96063.52
2019-03-23T20:35:45.968Z,96054.63
2019-03-23T20:38:16.534Z,96054.70
2019-03-23T20:40:47.106Z,96057.58
2019-03-23T20:43:17.655Z,96058.73
2019-03-23T20:45:48.706Z,96054.67
2019-03-23T20:48:20.665Z,96057.99
2019-03-23T20:50:51.391Z,96054.96
2019-03-23T20:53:22.382Z,96057.71
2019-03-23T20:55:52.913Z,96053.58
2019-03-23T20:58:23.858Z,96049.17
2019-03-23T21:00:54.329Z,96048.04
2019-03-23T21:03:24.778Z,96047.64
2019-03-23T21:05:55.343Z,96045.64
2019-03-23T21:08:25.798Z,96042.56
2019-03-23T21:10:56.429Z,96050.31
2019-03-23T21:13:27.514Z,96051.17
2019-03-23T21:15:58.076Z,96045.11
2019-03-23T21:18:28.559Z,96041.19
2019-03-23T21:20:59.087Z,96049.11
2019-03-23T21:23:29.627Z,96048.70
2019-03-23T21:26:00.082Z,96041.89
2019-03-23T21:28:30.530Z,96039.74
2019-03-23T21:31:00.980Z,96031.38
2019-03-23T21:33:32.179Z,96037.64
2019-03-23T21:36:03.664Z,96037.73
2019-03-23T21:38:34.329Z,96034.42
2019-03-23T21:41:04.876Z,96027.77
2019-03-23T21:43:35.334Z,96036.86
2019-03-23T21:46:05.991Z,96024.85
2019-03-23T21:48:36.457Z,96024.81
2019-03-23T21:51:06.990Z,96016.61
2019-03-23T21:53:38.825Z,96018.73
2019-03-23T21:56:10.325Z,96016.66
2019-03-23T21:58:40.777Z,96016.63
2019-03-23T22:01:12.355Z,96018.80
2019-03-23T22:03:42.916Z,96020.48
2019-03-23T22:06:13.847Z,96012.55
2019-03-23T22:08:45.241Z,96016.52
2019-03-23T22:11:15.696Z,96013.36
2019-03-23T22:13:46.673Z,96015.49
2019-03-23T22:16:17.142Z,96012.75
2019-03-23T22:18:47.743Z,96010.77
2019-03-23T22:21:18.258Z,96001.30
2019-03-23T22:23:48.716Z,96001.67
2019-03-23T22:26:19.232Z,96009.80
2019-03-23T22:28:49.672Z,96008.63
2019-03-23T22:31:20.182Z,96007.72
2019-03-23T22:33:50.719Z,96006.13
2019-03-23T22:36:21.152Z,96006.41
2019-03-23T22:38:51.725Z,96004.11
2019-03-23T22:41:22.281Z,96001.73
2019-03-23T22:43:52.742Z,95998.45
2019-03-23T22:46:23.253Z,95989.06
2019-03-23T22:48:53.689Z,95996.99
2019-03-23T22:51:24.219Z,95998.08
2019-03-23T22:53:55.471Z,95997.99
2019-03-23T22:56:26.060Z,96000.84
2019-03-23T22:58:56.522Z,96003.38
2019-03-23T23:01:27.055Z,95992.01
2019-03-23T23:03:57.638Z,95987.05
2019-03-23T23:06:28.221Z,95991.77
2019-03-23T23:08:58.623Z,95981.23
2019-03-23T23:11:29.069Z,95979.50
2019-03-23T23:14:01.255Z,95972.80
2019-03-23T23:16:32.232Z,95976.89
2019-03-23T23:19:02.705Z,95966.35
2019-03-23T23:21:33.153Z,95971.66
2019-03-23T23:24:03.828Z,95967.30
2019-03-23T23:26:34.313Z,95967.51
2019-03-23T23:29:04.814Z,95964.46
2019-03-23T23:31:35.365Z,95962.80
2019-03-23T23:34:06.123Z,95963.66
2019-03-23T23:36:36.673Z,95967.17
2019-03-23T23:39:08.321Z,95968.00
2019-03-23T23:41:38.874Z,95962.77
2019-03-23T23:44:09.302Z,95961.82
2019-03-23T23:46:40.856Z,95961.03
2019-03-23T23:49:11.355Z,95956.56
2019-03-23T23:51:49.782Z,95954.47
2019-03-23T23:54:14.016Z,95948.58
2019-03-23T23:56:44.611Z,95943.07
2019-03-23T23:59:16.155Z,95946.96
